»·PEaware :: DAL1989 KSEA-KHLN

DAL1989 :: KSEA-KHLN

FLIGHT INFORMATION

Flight Status: Arrived
Operator:
Delta Air Lines
More flights by this operator :: More flights under this callsign
Pilot: John L. (29598)
Aircraft: AIRBUS A320
(A320)
More flights by this aircraft type
Origin: KSEA Seattle-Tacoma Intl
United States
Destination: KHLN Helena Regl
United States
More flights between these airports :: More routes between these airports
Route: SEA7 ZADON ZELAK ZIRAN MLP J136 HLN
File this flight plan on PilotEdge
Remarks:
Altitude:
(Current/Filed)
35,000ft
Speed:
(Current/Filed)
470kts
Departed: 07-Feb-21 03:48 PM
Arrived: 07-Feb-21 05:03 PM
Distance/Time
Traveled:
425nm/1:15
Distance/Time
To Go:
Arrived

Flight Plot

Page will automatically refresh every two minutes.

Flight plan parsing failed; only flown route is shown


Map Options




Map Legend


Flown Route
Filed Route
Departure Airport
Arrival Airport
Navaid (VOR, NDB)
Fix

Horizontal Profiles

Position Reports

Time Latitude Longitude Heading Altitude Ground
Speed
07-Feb-21 15:14 47.448363 -122.303559 39 436ft 0kts
07-Feb-21 15:15 47.448363 -122.303559 39 436ft 0kts
07-Feb-21 15:16 47.448363 -122.303559 39 436ft 0kts
07-Feb-21 15:17 47.448363 -122.303559 39 436ft 0kts
07-Feb-21 15:18 47.448363 -122.303559 39 436ft 0kts
07-Feb-21 15:19 47.448363 -122.303559 39 436ft 0kts
07-Feb-21 15:21 47.448363 -122.303559 39 436ft 0kts
07-Feb-21 15:22 47.448363 -122.303559 39 436ft 0kts
07-Feb-21 15:23 47.448363 -122.303559 39 436ft 0kts
07-Feb-21 15:24 47.448363 -122.303559 39 436ft 0kts
07-Feb-21 15:25 47.448363 -122.303559 39 436ft 0kts
07-Feb-21 15:26 47.448363 -122.303559 39 436ft 0kts
07-Feb-21 15:27 47.448363 -122.303559 39 436ft 0kts
07-Feb-21 15:28 47.448363 -122.303559 39 436ft 0kts
07-Feb-21 15:29 47.448363 -122.303559 39 436ft 0kts
07-Feb-21 15:30 47.448363 -122.303559 39 436ft 0kts
07-Feb-21 15:31 47.448363 -122.303559 39 436ft 0kts
07-Feb-21 15:32 47.448363 -122.303559 39 436ft 0kts
07-Feb-21 15:33 47.448363 -122.303559 39 436ft 0kts
07-Feb-21 15:33 47.448363 -122.303559 39 436ft 0kts
07-Feb-21 15:35 47.448363 -122.303559 39 436ft 0kts
07-Feb-21 15:36 47.448363 -122.303559 39 436ft 0kts
07-Feb-21 15:36 47.448363 -122.303559 39 436ft 0kts
07-Feb-21 15:38 47.447925 -122.304086 37 436ft 1kts
07-Feb-21 15:38 47.447702 -122.303900 288 436ft 0kts
07-Feb-21 15:39 47.447702 -122.303901 288 436ft 0kts
07-Feb-21 15:41 47.447703 -122.303918 278 436ft 0kts
07-Feb-21 15:41 47.447695 -122.303983 260 436ft 0kts
07-Feb-21 15:42 47.447983 -122.305727 293 436ft 11kts
07-Feb-21 15:43 47.451128 -122.306273 0 436ft 17kts
07-Feb-21 15:44 47.456712 -122.306217 1 436ft 22kts
07-Feb-21 15:45 47.463299 -122.306140 356 436ft 8kts
07-Feb-21 15:46 47.463613 -122.306341 315 436ft 2kts
07-Feb-21 15:47 47.457598 -122.307834 181 436ft 120kts
07-Feb-21 15:48 47.409097 -122.309484 177 2967ft 219kts
07-Feb-21 15:49 47.336986 -122.309409 183 5771ft 278kts
07-Feb-21 15:50 47.265873 -122.270811 118 9231ft 312kts
07-Feb-21 15:51 47.287929 -122.152447 38 11211ft 347kts
07-Feb-21 15:52 47.359461 -122.046429 36 13612ft 374kts
07-Feb-21 15:53 47.433287 -121.935075 33 16106ft 386kts
07-Feb-21 15:54 47.509145 -121.819797 31 18356ft 396kts
07-Feb-21 15:55 47.562003 -121.669153 81 20229ft 482kts
07-Feb-21 15:56 47.558630 -121.467586 82 21963ft 495kts
07-Feb-21 15:57 47.555571 -121.261284 83 23470ft 509kts
07-Feb-21 15:58 47.551973 -121.049299 82 24801ft 521kts
07-Feb-21 15:59 47.547857 -120.831377 82 26007ft 534kts
07-Feb-21 16:00 47.543248 -120.609432 82 27121ft 547kts
07-Feb-21 16:01 47.539010 -120.382653 79 28234ft 553kts
07-Feb-21 16:02 47.539557 -120.152826 80 29241ft 561kts
07-Feb-21 16:03 47.539619 -119.921301 80 30533ft 561kts
07-Feb-21 16:04 47.539225 -119.693001 80 32140ft 551kts
07-Feb-21 16:05 47.538384 -119.468150 80 33603ft 544kts
07-Feb-21 16:06 47.537136 -119.245404 81 34897ft 537kts
07-Feb-21 16:07 47.535479 -119.025540 82 35016ft 533kts
07-Feb-21 16:08 47.533398 -118.806526 82 35010ft 532kts
07-Feb-21 16:09 47.530907 -118.587695 82 35017ft 532kts
07-Feb-21 16:10 47.528004 -118.369192 82 35021ft 530kts
07-Feb-21 16:11 47.524702 -118.151586 83 35002ft 529kts
07-Feb-21 16:12 47.520998 -117.934680 83 35004ft 528kts
07-Feb-21 16:13 47.516875 -117.717173 83 35009ft 528kts
07-Feb-21 16:14 47.512350 -117.500263 83 35018ft 529kts
07-Feb-21 16:15 47.507381 -117.281851 84 35009ft 531kts
07-Feb-21 16:16 47.502023 -117.064483 84 35016ft 531kts
07-Feb-21 16:17 47.496218 -116.845896 84 35021ft 531kts
07-Feb-21 16:18 47.490018 -116.627907 85 35006ft 531kts
07-Feb-21 16:19 47.482211 -116.410101 84 35019ft 530kts
07-Feb-21 16:20 47.476266 -116.192048 86 35005ft 529kts
07-Feb-21 16:21 47.468976 -115.975469 86 34934ft 528kts
07-Feb-21 16:22 47.461189 -115.758859 86 34911ft 527kts
07-Feb-21 16:23 47.435679 -115.544668 103 34914ft 541kts
07-Feb-21 16:24 47.390422 -115.332826 103 34928ft 540kts
07-Feb-21 16:25 47.345045 -115.121748 103 34937ft 540kts
07-Feb-21 16:26 47.299412 -114.911677 104 34987ft 540kts
07-Feb-21 16:27 47.253216 -114.701165 104 34995ft 540kts
07-Feb-21 16:28 47.206827 -114.491872 104 35003ft 539kts
07-Feb-21 16:29 47.160054 -114.282947 105 34754ft 535kts
07-Feb-21 16:30 47.112750 -114.073748 105 31855ft 546kts
07-Feb-21 16:31 47.064530 -113.862558 105 29248ft 544kts
07-Feb-21 16:32 47.016444 -113.654019 106 26508ft 540kts
07-Feb-21 16:33 46.968739 -113.449797 106 24869ft 507kts
07-Feb-21 16:34 46.923834 -113.258124 107 23966ft 495kts
07-Feb-21 16:35 46.879086 -113.069180 107 23962ft 491kts
07-Feb-21 16:36 46.834074 -112.880749 107 23981ft 489kts
07-Feb-21 16:37 46.788987 -112.693617 107 23996ft 488kts
07-Feb-21 16:38 46.743767 -112.507768 107 23914ft 484kts
07-Feb-21 16:39 46.699487 -112.326980 108 22087ft 464kts
07-Feb-21 16:40 46.656848 -112.154284 109 20228ft 442kts
07-Feb-21 16:41 46.617355 -111.995463 112 18721ft 380kts
07-Feb-21 16:42 46.543778 -111.933429 178 17541ft 285kts
07-Feb-21 16:43 46.470559 -111.914993 177 16262ft 258kts
07-Feb-21 16:44 46.401712 -111.891931 163 14881ft 249kts
07-Feb-21 16:45 46.346819 -111.834034 133 13194ft 232kts
07-Feb-21 16:46 46.316869 -111.752110 104 11708ft 224kts
07-Feb-21 16:47 46.312859 -111.664038 76 10425ft 203kts
07-Feb-21 16:48 46.334484 -111.592481 53 9166ft 189kts
07-Feb-21 16:49 46.371403 -111.542382 29 8798ft 157kts
07-Feb-21 16:50 46.409346 -111.521340 11 7370ft 142kts
07-Feb-21 16:51 46.449392 -111.518900 353 7207ft 144kts
07-Feb-21 16:52 46.487780 -111.535039 334 7207ft 144kts
07-Feb-21 16:53 46.520673 -111.568251 315 7207ft 144kts
07-Feb-21 16:54 46.544474 -111.615050 296 7208ft 144kts
07-Feb-21 16:55 46.557038 -111.670371 282 7208ft 144kts
07-Feb-21 16:56 46.566011 -111.727027 282 7205ft 142kts
07-Feb-21 16:57 46.574935 -111.783631 282 6930ft 143kts
07-Feb-21 16:58 46.583627 -111.839851 281 6121ft 142kts
07-Feb-21 16:59 46.592540 -111.895033 282 5201ft 138kts
07-Feb-21 17:00 46.600786 -111.948574 282 4080ft 133kts
07-Feb-21 17:01 46.607615 -111.992493 281 3859ft 70kts
07-Feb-21 17:02 46.609226 -111.997253 12 3866ft 0kts
07-Feb-21 17:03 46.609722 -111.994320 102 3853ft 19kts
07-Feb-21 17:04 46.609619 -111.989584 12 3840ft 5kts

Navigation Log

Ident Type
Flight plan parsing failed, navigation log unavailable